createdAt,value
2019-04-30T00:00:43.201Z,21.70
2019-04-30T00:01:43.188Z,23.30
2019-04-30T00:02:45.302Z,21.80
2019-04-30T00:03:43.175Z,23.40
2019-04-30T00:04:45.161Z,21.50
2019-04-30T00:05:44.995Z,22.10
2019-04-30T00:06:43.161Z,22.50
2019-04-30T00:07:43.156Z,23.00
2019-04-30T00:08:45.051Z,22.30
2019-04-30T00:09:44.866Z,21.10
2019-04-30T00:10:43.132Z,22.30
2019-04-30T00:11:43.130Z,24.20
2019-04-30T00:12:43.125Z,23.00
2019-04-30T00:13:43.144Z,23.90
2019-04-30T00:14:44.838Z,21.30
2019-04-30T00:15:43.114Z,19.90
2019-04-30T00:16:45.043Z,24.20
2019-04-30T00:17:43.099Z,23.30
2019-04-30T00:18:55.392Z,20.50
2019-04-30T00:19:43.084Z,22.60
2019-04-30T00:20:45.296Z,25.80
2019-04-30T00:21:43.066Z,23.00
2019-04-30T00:22:47.181Z,22.00
2019-04-30T00:23:43.056Z,22.90
2019-04-30T00:24:46.894Z,20.90
2019-04-30T00:25:43.097Z,21.80
2019-04-30T00:26:45.043Z,23.60
2019-04-30T00:27:43.051Z,23.60
2019-04-30T00:28:44.369Z,23.70
2019-04-30T00:29:43.023Z,21.70
2019-04-30T00:30:43.985Z,23.30
2019-04-30T00:31:44.701Z,24.20
2019-04-30T00:32:44.014Z,20.90
2019-04-30T00:33:44.920Z,24.20
2019-04-30T00:34:42.995Z,26.60
2019-04-30T00:35:42.987Z,23.70
2019-04-30T00:36:42.978Z,22.60
2019-04-30T00:37:42.978Z,24.50
2019-04-30T00:38:44.727Z,23.60
2019-04-30T00:39:44.343Z,22.80
2019-04-30T00:40:44.684Z,24.10
2019-04-30T00:41:45.920Z,23.80
2019-04-30T00:42:42.946Z,23.40
2019-04-30T00:43:49.284Z,26.90
2019-04-30T00:44:42.931Z,24.20
2019-04-30T00:45:44.854Z,25.60
2019-04-30T00:46:42.925Z,24.80
2019-04-30T00:47:44.541Z,25.40
2019-04-30T00:48:42.907Z,24.90
2019-04-30T00:49:42.907Z,25.50
2019-04-30T00:50:42.900Z,24.20
2019-04-30T00:51:42.899Z,26.30
2019-04-30T00:52:42.891Z,25.10
2019-04-30T00:53:43.806Z,24.30
2019-04-30T00:54:42.876Z,26.00
2019-04-30T00:55:44.999Z,26.70
2019-04-30T00:56:42.863Z,24.70
2019-04-30T00:57:43.931Z,28.60
2019-04-30T00:58:42.855Z,27.30
2019-04-30T00:59:46.532Z,24.30
2019-04-30T01:00:42.840Z,26.60
2019-04-30T01:01:44.295Z,30.00
2019-04-30T01:02:42.823Z,26.10
2019-04-30T01:03:46.434Z,26.90
2019-04-30T01:04:44.865Z,26.50
2019-04-30T01:05:46.491Z,27.20
2019-04-30T01:06:42.800Z,26.30
2019-04-30T01:07:48.687Z,25.50
2019-04-30T01:08:42.792Z,30.50
2019-04-30T01:09:46.517Z,27.20
2019-04-30T01:10:42.783Z,28.90
2019-04-30T01:11:46.934Z,28.10
2019-04-30T01:12:47.347Z,27.10
2019-04-30T01:13:50.206Z,29.10
2019-04-30T01:14:42.758Z,29.60
2019-04-30T01:15:43.966Z,27.60
2019-04-30T01:16:42.741Z,29.60
2019-04-30T01:17:45.298Z,28.00
2019-04-30T01:18:42.733Z,28.40
2019-04-30T01:19:45.921Z,30.00
2019-04-30T01:20:42.717Z,26.20
2019-04-30T01:21:47.014Z,31.30
2019-04-30T01:22:42.710Z,31.10
2019-04-30T01:23:51.861Z,27.80
2019-04-30T01:24:42.699Z,29.50
2019-04-30T01:25:43.155Z,30.20
2019-04-30T01:26:42.684Z,28.70
2019-04-30T01:27:45.582Z,30.20
2019-04-30T01:28:42.672Z,29.50
2019-04-30T01:29:44.358Z,26.90
2019-04-30T01:30:42.663Z,30.40
2019-04-30T01:31:42.656Z,28.60
2019-04-30T01:32:42.650Z,32.20
2019-04-30T01:33:42.638Z,31.30
2019-04-30T01:34:44.233Z,26.60
2019-04-30T01:35:42.632Z,28.50
2019-04-30T01:36:43.526Z,28.80
2019-04-30T01:37:42.627Z,31.00
2019-04-30T01:38:44.807Z,34.50
2019-04-30T01:39:42.605Z,29.00
2019-04-30T01:40:46.976Z,30.70
2019-04-30T01:41:42.597Z,30.70
2019-04-30T01:42:47.990Z,31.80
2019-04-30T01:43:42.584Z,30.80
2019-04-30T01:44:43.572Z,30.10
2019-04-30T01:45:42.566Z,30.00
2019-04-30T01:46:43.289Z,30.50
2019-04-30T01:47:42.557Z,28.60
2019-04-30T01:48:43.670Z,31.40
2019-04-30T01:49:44.771Z,32.10
2019-04-30T01:50:42.543Z,28.80
2019-04-30T01:51:42.535Z,32.90
2019-04-30T01:52:42.528Z,31.90
2019-04-30T01:53:43.585Z,28.30
2019-04-30T01:54:42.520Z,30.80
2019-04-30T01:55:42.513Z,30.10
2019-04-30T01:56:42.507Z,32.10
2019-04-30T01:57:42.495Z,31.40
2019-04-30T01:58:42.490Z,30.70
2019-04-30T01:59:42.482Z,29.20
2019-04-30T02:00:42.476Z,30.10
2019-04-30T02:01:42.475Z,31.30
2019-04-30T02:02:42.469Z,32.50
2019-04-30T02:03:42.466Z,31.50
2019-04-30T02:04:42.460Z,30.80
2019-04-30T02:05:42.449Z,29.20
2019-04-30T02:06:42.442Z,31.80
2019-04-30T02:07:42.441Z,31.00
2019-04-30T02:08:42.439Z,30.20
2019-04-30T02:09:42.423Z,34.10
2019-04-30T02:10:42.420Z,35.00
2019-04-30T02:11:42.411Z,31.70
2019-04-30T02:12:42.404Z,37.30
2019-04-30T02:13:42.406Z,33.50
2019-04-30T02:14:42.397Z,31.90
2019-04-30T02:15:42.391Z,29.50
2019-04-30T02:16:42.385Z,33.30
2019-04-30T02:17:42.373Z,33.30
2019-04-30T02:18:42.368Z,31.80
2019-04-30T02:19:53.661Z,31.10
2019-04-30T02:20:42.359Z,31.10
2019-04-30T02:21:42.356Z,31.70
2019-04-30T02:22:42.349Z,34.50
2019-04-30T02:23:42.345Z,32.30
2019-04-30T02:24:42.333Z,32.90
2019-04-30T02:25:42.331Z,30.40
2019-04-30T02:26:42.326Z,33.20
2019-04-30T02:27:42.316Z,35.10
2019-04-30T02:28:42.309Z,32.90
2019-04-30T02:29:42.300Z,37.20
2019-04-30T02:30:42.296Z,31.00
2019-04-30T02:31:42.290Z,32.50
2019-04-30T02:32:42.288Z,30.90
2019-04-30T02:33:42.291Z,35.80
2019-04-30T02:34:44.199Z,30.60
2019-04-30T02:35:42.269Z,33.50
2019-04-30T02:36:42.266Z,33.40
2019-04-30T02:37:43.460Z,30.40
2019-04-30T02:38:42.249Z,33.80
2019-04-30T02:39:42.249Z,30.20
2019-04-30T02:40:42.679Z,30.30
2019-04-30T02:41:42.228Z,32.20
2019-04-30T02:42:42.226Z,29.90
2019-04-30T02:43:42.212Z,31.00
2019-04-30T02:44:42.207Z,32.60
2019-04-30T02:45:42.228Z,29.80
2019-04-30T02:46:42.199Z,30.60
2019-04-30T02:47:42.192Z,31.70
2019-04-30T02:48:42.187Z,30.90
2019-04-30T02:49:42.183Z,36.00
2019-04-30T02:50:42.176Z,32.00
2019-04-30T02:51:42.168Z,30.60
2019-04-30T02:52:42.175Z,31.40
2019-04-30T02:53:42.150Z,30.80
2019-04-30T02:54:42.146Z,28.60
2019-04-30T02:55:42.143Z,34.50
2019-04-30T02:56:42.137Z,31.60
2019-04-30T02:57:42.126Z,32.80
2019-04-30T02:58:42.120Z,35.50
2019-04-30T02:59:42.116Z,31.80
2019-04-30T03:00:42.111Z,30.60
2019-04-30T03:01:42.107Z,32.30
2019-04-30T03:02:42.101Z,32.20
2019-04-30T03:03:42.664Z,32.20
2019-04-30T03:04:42.091Z,31.80
2019-04-30T03:05:42.080Z,29.10
2019-04-30T03:06:42.074Z,30.90
2019-04-30T03:07:42.065Z,34.80
2019-04-30T03:08:42.060Z,29.70
2019-04-30T03:09:42.055Z,32.40
2019-04-30T03:10:42.076Z,32.70
2019-04-30T03:11:42.038Z,32.00
2019-04-30T03:12:42.038Z,33.20
2019-04-30T03:13:42.854Z,31.90
2019-04-30T03:14:42.024Z,33.50
2019-04-30T03:15:42.021Z,30.20
2019-04-30T03:16:42.016Z,35.90
2019-04-30T03:17:42.003Z,34.40
2019-04-30T03:18:41.998Z,32.10
2019-04-30T03:19:41.991Z,32.60
2019-04-30T03:20:41.987Z,31.60
2019-04-30T03:21:41.982Z,34.60
2019-04-30T03:22:42.000Z,33.20
2019-04-30T03:23:41.968Z,30.10
2019-04-30T03:24:42.941Z,31.10
2019-04-30T03:25:41.974Z,29.30
2019-04-30T03:26:41.944Z,31.70
2019-04-30T03:27:42.566Z,32.90
2019-04-30T03:28:41.939Z,31.50
2019-04-30T03:29:41.925Z,30.90
2019-04-30T03:30:42.644Z,33.80
2019-04-30T03:31:45.124Z,30.50
2019-04-30T03:32:43.033Z,31.50
2019-04-30T03:33:42.744Z,31.70
2019-04-30T03:34:42.805Z,29.20
2019-04-30T03:35:47.837Z,31.40
2019-04-30T03:36:41.889Z,36.90
2019-04-30T03:37:41.877Z,30.80
2019-04-30T03:38:42.806Z,31.20
2019-04-30T03:39:41.868Z,30.40
2019-04-30T03:40:41.863Z,32.40
2019-04-30T03:41:41.886Z,28.90
2019-04-30T03:42:41.848Z,31.50
2019-04-30T03:43:41.837Z,30.20
2019-04-30T03:44:41.830Z,32.40
2019-04-30T03:45:41.831Z,31.70
2019-04-30T03:46:41.826Z,33.10
2019-04-30T03:47:43.158Z,31.50
2019-04-30T03:48:41.813Z,33.90
2019-04-30T03:49:41.813Z,30.50
2019-04-30T03:50:53.268Z,32.00
2019-04-30T03:51:41.787Z,31.90
2019-04-30T03:52:41.782Z,30.50
2019-04-30T03:53:42.689Z,31.10
2019-04-30T03:54:41.773Z,29.30
2019-04-30T03:55:41.769Z,32.50
2019-04-30T03:56:41.763Z,30.80
2019-04-30T03:57:41.752Z,34.60
2019-04-30T03:58:41.746Z,32.80
2019-04-30T03:59:41.751Z,30.70
2019-04-30T04:00:42.490Z,31.80
2019-04-30T04:01:41.726Z,29.90
2019-04-30T04:02:41.720Z,35.00
2019-04-30T04:03:42.266Z,33.70
2019-04-30T04:04:41.704Z,31.20
2019-04-30T04:05:41.702Z,32.60
2019-04-30T04:06:41.696Z,35.00
2019-04-30T04:07:41.689Z,32.30
2019-04-30T04:08:43.472Z,31.70
2019-04-30T04:09:41.672Z,31.50
2019-04-30T04:10:41.670Z,32.20
2019-04-30T04:11:41.664Z,31.30
2019-04-30T04:12:41.659Z,31.20
2019-04-30T04:13:41.665Z,29.30
2019-04-30T04:14:41.648Z,31.30
2019-04-30T04:15:41.637Z,33.40
2019-04-30T04:16:41.631Z,32.90
2019-04-30T04:17:41.651Z,31.20
2019-04-30T04:18:41.622Z,33.50
2019-04-30T04:19:41.633Z,32.20
2019-04-30T04:20:42.943Z,32.80
2019-04-30T04:21:41.600Z,35.20
2019-04-30T04:22:41.591Z,33.90
2019-04-30T04:23:41.587Z,32.80
2019-04-30T04:24:41.577Z,34.70
2019-04-30T04:25:41.574Z,34.50
2019-04-30T04:26:43.907Z,35.40
2019-04-30T04:27:41.566Z,32.00
2019-04-30T04:28:43.565Z,33.50
2019-04-30T04:29:41.557Z,32.60
2019-04-30T04:30:42.989Z,31.30
2019-04-30T04:31:41.538Z,31.40
2019-04-30T04:32:41.535Z,33.00
2019-04-30T04:33:41.522Z,34.70
2019-04-30T04:34:44.816Z,32.90
2019-04-30T04:35:41.507Z,33.60
2019-04-30T04:36:43.404Z,32.20
2019-04-30T04:37:41.498Z,32.90
2019-04-30T04:38:41.496Z,31.80
2019-04-30T04:39:42.106Z,34.50
2019-04-30T04:40:41.479Z,31.50
2019-04-30T04:41:44.168Z,32.90
2019-04-30T04:42:41.463Z,33.50
2019-04-30T04:43:41.458Z,33.40
2019-04-30T04:44:41.452Z,32.90
2019-04-30T04:45:43.779Z,31.80
2019-04-30T04:46:41.441Z,31.00
2019-04-30T04:47:41.432Z,33.30
2019-04-30T04:48:41.426Z,30.50
2019-04-30T04:49:41.423Z,31.60
2019-04-30T04:50:41.416Z,32.90
2019-04-30T04:51:42.296Z,30.80
2019-04-30T04:52:41.401Z,32.60
2019-04-30T04:53:41.390Z,33.40
2019-04-30T04:54:41.385Z,29.80
2019-04-30T04:55:41.389Z,30.80
2019-04-30T04:56:41.374Z,30.90
2019-04-30T04:57:41.371Z,32.90
2019-04-30T04:58:41.367Z,34.00
2019-04-30T04:59:42.538Z,30.70
2019-04-30T05:00:41.353Z,32.10
2019-04-30T05:01:41.340Z,31.90
2019-04-30T05:02:41.331Z,32.80
2019-04-30T05:03:41.331Z,32.60
2019-04-30T05:04:41.329Z,30.50
2019-04-30T05:05:41.314Z,32.70
2019-04-30T05:06:41.314Z,30.80
2019-04-30T05:07:41.304Z,32.40
2019-04-30T05:08:41.299Z,32.10
2019-04-30T05:09:41.295Z,32.80
2019-04-30T05:10:41.287Z,31.30
2019-04-30T05:11:41.281Z,32.50
2019-04-30T05:12:41.274Z,30.90
2019-04-30T05:13:41.266Z,32.50
2019-04-30T05:14:41.259Z,32.50
2019-04-30T05:15:41.249Z,34.40
2019-04-30T05:16:41.244Z,33.70
2019-04-30T05:17:41.241Z,33.00
2019-04-30T05:18:41.234Z,32.60
2019-04-30T05:19:41.226Z,32.40
2019-04-30T05:20:41.755Z,32.40
2019-04-30T05:21:44.544Z,33.00
2019-04-30T05:22:41.211Z,31.50
2019-04-30T05:23:42.674Z,32.00
2019-04-30T05:24:41.202Z,33.40
2019-04-30T05:25:41.190Z,31.40
2019-04-30T05:26:41.184Z,34.90
2019-04-30T05:27:41.180Z,32.50
2019-04-30T05:28:41.172Z,33.70
2019-04-30T05:29:41.173Z,31.70
2019-04-30T05:30:41.163Z,32.30
2019-04-30T05:31:41.155Z,34.10
2019-04-30T05:32:41.149Z,34.30
2019-04-30T05:33:41.142Z,31.90
2019-04-30T05:34:41.133Z,35.60
2019-04-30T05:35:41.131Z,34.00
2019-04-30T05:36:41.123Z,34.00
2019-04-30T05:37:41.113Z,35.50
2019-04-30T05:38:41.115Z,33.60
2019-04-30T05:39:41.103Z,32.60
2019-04-30T05:40:42.497Z,30.80
2019-04-30T05:41:41.225Z,32.80
2019-04-30T05:42:41.089Z,32.40
2019-04-30T05:43:41.084Z,34.30
2019-04-30T05:44:41.080Z,32.90
2019-04-30T05:45:41.067Z,33.30
2019-04-30T05:46:41.062Z,37.10
2019-04-30T05:47:41.055Z,32.40
2019-04-30T05:48:41.047Z,32.70
2019-04-30T05:49:41.049Z,34.60
2019-04-30T05:50:41.038Z,32.20
2019-04-30T05:51:52.880Z,31.00
2019-04-30T05:52:41.024Z,32.00
2019-04-30T05:53:41.022Z,33.40
2019-04-30T05:54:41.016Z,30.70
2019-04-30T05:55:41.013Z,31.00
2019-04-30T05:56:42.730Z,33.10
2019-04-30T05:57:53.136Z,31.20
2019-04-30T05:58:40.990Z,34.30
2019-04-30T05:59:40.985Z,31.30
2019-04-30T06:00:40.976Z,33.70
2019-04-30T06:01:47.873Z,30.40
2019-04-30T06:02:40.969Z,31.90
2019-04-30T06:03:40.965Z,33.00
2019-04-30T06:04:40.959Z,33.90
2019-04-30T06:05:40.951Z,32.20
2019-04-30T06:06:40.945Z,33.20
2019-04-30T06:07:40.942Z,32.50
2019-04-30T06:08:40.939Z,30.30
2019-04-30T06:09:40.927Z,31.40
2019-04-30T06:10:40.922Z,34.90
2019-04-30T06:11:40.914Z,31.30
2019-04-30T06:12:40.908Z,31.90
2019-04-30T06:13:40.907Z,30.00
2019-04-30T06:14:49.001Z,30.60
2019-04-30T06:15:40.894Z,33.20
2019-04-30T06:16:40.889Z,30.60
2019-04-30T06:17:40.880Z,32.30
2019-04-30T06:18:42.208Z,29.90
2019-04-30T06:19:40.871Z,31.40
2019-04-30T06:20:40.867Z,30.20
2019-04-30T06:21:40.864Z,32.30
2019-04-30T06:22:40.859Z,29.20
2019-04-30T06:23:40.852Z,30.90
2019-04-30T06:24:40.846Z,31.10
2019-04-30T06:25:55.314Z,30.80
2019-04-30T06:26:40.838Z,30.80
2019-04-30T06:27:40.834Z,28.70
2019-04-30T06:28:41.652Z,28.60
2019-04-30T06:29:40.823Z,24.20
2019-04-30T06:30:40.816Z,24.40
2019-04-30T06:31:43.166Z,24.70
2019-04-30T06:32:40.811Z,25.90
2019-04-30T06:33:40.810Z,27.40
2019-04-30T06:34:41.935Z,25.70
2019-04-30T06:35:40.809Z,23.20
2019-04-30T06:36:50.987Z,23.80
2019-04-30T06:37:40.801Z,24.50
2019-04-30T06:38:40.803Z,24.00
2019-04-30T06:39:40.807Z,22.40
2019-04-30T06:40:40.804Z,23.30
2019-04-30T06:41:41.070Z,23.50
2019-04-30T06:42:40.798Z,23.60
2019-04-30T06:43:40.795Z,24.00
2019-04-30T06:44:41.909Z,22.10
2019-04-30T06:45:40.801Z,23.90
2019-04-30T06:46:40.807Z,22.30
2019-04-30T06:47:40.804Z,22.80
2019-04-30T06:48:41.854Z,22.50
2019-04-30T06:49:40.799Z,22.20
2019-04-30T06:50:40.803Z,23.20
2019-04-30T06:51:40.807Z,24.20
2019-04-30T06:52:40.807Z,22.90
2019-04-30T06:53:40.812Z,23.40
2019-04-30T06:54:40.814Z,22.90
2019-04-30T06:55:40.814Z,22.70
2019-04-30T06:56:40.815Z,23.00
2019-04-30T06:57:40.820Z,22.20
2019-04-30T06:58:41.369Z,23.50
2019-04-30T06:59:40.823Z,23.00
2019-04-30T07:00:40.826Z,25.60
2019-04-30T07:01:40.822Z,25.00
2019-04-30T07:02:40.824Z,23.90
2019-04-30T07:03:40.826Z,22.90
2019-04-30T07:04:40.829Z,28.50
2019-04-30T07:05:40.836Z,25.60
2019-04-30T07:06:44.134Z,25.40
2019-04-30T07:07:41.750Z,25.20
2019-04-30T07:08:46.761Z,26.50
2019-04-30T07:09:52.146Z,24.40
2019-04-30T07:10:52.713Z,25.40
2019-04-30T07:11:40.855Z,25.40
2019-04-30T07:12:40.858Z,25.30
2019-04-30T07:13:40.856Z,25.80
2019-04-30T07:14:41.963Z,25.40
2019-04-30T07:15:40.861Z,24.90
2019-04-30T07:16:40.864Z,26.50
2019-04-30T07:17:40.876Z,26.10
2019-04-30T07:18:40.879Z,27.60
2019-04-30T07:19:53.478Z,28.00
2019-04-30T07:20:40.885Z,27.70
2019-04-30T07:21:42.903Z,27.50
2019-04-30T07:22:49.369Z,30.40
2019-04-30T07:23:40.898Z,30.00
2019-04-30T07:24:40.946Z,29.80
2019-04-30T07:25:40.910Z,30.80
2019-04-30T07:26:40.916Z,28.60
2019-04-30T07:27:40.920Z,30.30
2019-04-30T07:28:46.935Z,29.80
2019-04-30T07:29:40.926Z,30.90
2019-04-30T07:30:40.993Z,28.70
2019-04-30T07:31:40.934Z,29.30
2019-04-30T07:32:40.939Z,30.10
2019-04-30T07:33:40.935Z,30.10
2019-04-30T07:34:40.939Z,30.80
2019-04-30T07:35:40.943Z,30.30
2019-04-30T07:36:46.800Z,29.30
2019-04-30T07:37:40.951Z,29.80
2019-04-30T07:38:51.710Z,30.70
2019-04-30T07:39:40.960Z,30.20
2019-04-30T07:40:40.962Z,29.80
2019-04-30T07:41:40.959Z,29.10
2019-04-30T07:42:44.916Z,30.80
2019-04-30T07:43:40.968Z,29.90
2019-04-30T07:44:40.967Z,30.10
2019-04-30T07:45:40.976Z,30.10
2019-04-30T07:46:45.254Z,29.30
2019-04-30T07:47:40.965Z,30.20
2019-04-30T07:48:40.967Z,29.40
2019-04-30T07:49:50.905Z,28.90
2019-04-30T07:50:41.759Z,28.90
2019-04-30T07:51:42.075Z,28.70
2019-04-30T07:52:58.154Z,29.20
2019-04-30T07:53:40.969Z,28.60
2019-04-30T07:54:40.971Z,28.70
2019-04-30T07:55:40.976Z,27.80
2019-04-30T07:56:41.842Z,28.20
2019-04-30T07:57:40.980Z,28.40
2019-04-30T07:58:40.980Z,27.40
2019-04-30T07:59:40.978Z,26.90
2019-04-30T08:00:40.982Z,25.80
2019-04-30T08:02:00.614Z,27.20
2019-04-30T08:02:43.684Z,27.10
2019-04-30T08:03:41.404Z,26.10
2019-04-30T08:04:40.988Z,25.80
2019-04-30T08:05:40.989Z,25.70
2019-04-30T08:06:41.041Z,26.10
2019-04-30T08:07:41.058Z,26.60
2019-04-30T08:08:41.232Z,25.90
2019-04-30T08:09:42.282Z,26.00
2019-04-30T08:10:41.005Z,27.00
2019-04-30T08:11:43.413Z,26.60
2019-04-30T08:12:43.453Z,26.80
2019-04-30T08:13:41.578Z,26.70
2019-04-30T08:14:41.013Z,27.80
2019-04-30T08:15:42.354Z,27.70
2019-04-30T08:16:41.030Z,27.10
2019-04-30T08:17:41.027Z,27.20
2019-04-30T08:18:41.034Z,28.30
2019-04-30T08:19:41.219Z,28.40
2019-04-30T08:20:41.052Z,26.70
2019-04-30T08:21:41.062Z,26.50
2019-04-30T08:22:41.212Z,28.80
2019-04-30T08:23:41.079Z,27.30
2019-04-30T08:24:41.090Z,28.50
2019-04-30T08:25:41.093Z,29.60
2019-04-30T08:26:41.100Z,28.70
2019-04-30T08:27:41.107Z,28.70
2019-04-30T08:28:41.118Z,30.20
2019-04-30T08:29:41.128Z,29.50
2019-04-30T08:30:41.138Z,28.30
2019-04-30T08:31:41.144Z,28.40
2019-04-30T08:32:41.149Z,28.20
2019-04-30T08:33:41.164Z,25.80
2019-04-30T08:34:41.171Z,25.60
2019-04-30T08:35:41.187Z,26.10
2019-04-30T08:36:41.194Z,25.70
2019-04-30T08:37:41.197Z,25.00
2019-04-30T08:38:41.208Z,26.90
2019-04-30T08:39:41.217Z,24.90
2019-04-30T08:40:53.362Z,28.30
2019-04-30T08:41:41.241Z,26.50
2019-04-30T08:42:41.251Z,26.30
2019-04-30T08:43:41.260Z,27.20
2019-04-30T08:44:41.270Z,26.50
2019-04-30T08:45:41.276Z,27.20
2019-04-30T08:46:41.287Z,26.70
2019-04-30T08:47:41.306Z,26.20
2019-04-30T08:48:50.185Z,25.50
2019-04-30T08:49:41.602Z,26.40
2019-04-30T08:50:41.369Z,25.00
2019-04-30T08:51:41.630Z,25.40
2019-04-30T08:52:41.380Z,24.80
2019-04-30T08:53:41.434Z,24.80
2019-04-30T08:54:41.387Z,25.30
2019-04-30T08:55:41.398Z,24.70
2019-04-30T08:56:41.411Z,24.30
2019-04-30T08:57:41.429Z,24.00
2019-04-30T08:58:41.430Z,23.50
2019-04-30T08:59:41.441Z,23.30
2019-04-30T09:00:41.451Z,23.50
2019-04-30T09:01:41.468Z,24.10
2019-04-30T09:02:41.481Z,24.40
2019-04-30T09:03:41.491Z,24.40
2019-04-30T09:04:41.505Z,24.50
2019-04-30T09:05:41.520Z,25.30
2019-04-30T09:06:41.534Z,26.00
2019-04-30T09:07:41.549Z,25.40
2019-04-30T09:08:41.563Z,26.30
2019-04-30T09:09:44.496Z,25.40
2019-04-30T09:10:41.584Z,23.40
2019-04-30T09:11:51.741Z,24.20
2019-04-30T09:12:41.610Z,25.40
2019-04-30T09:13:41.649Z,25.00
2019-04-30T09:14:41.635Z,24.80
2019-04-30T09:15:41.651Z,24.70
2019-04-30T09:16:41.679Z,25.20
2019-04-30T09:17:41.673Z,24.10
2019-04-30T09:18:41.685Z,23.80
2019-04-30T09:19:41.705Z,23.80
2019-04-30T09:20:41.717Z,24.00
2019-04-30T09:21:41.727Z,24.50
2019-04-30T09:22:41.739Z,24.60
2019-04-30T09:23:49.413Z,25.00
2019-04-30T09:24:41.766Z,25.20
2019-04-30T09:25:41.782Z,24.30
2019-04-30T09:26:41.796Z,23.80
2019-04-30T09:27:41.811Z,24.20
2019-04-30T09:28:41.826Z,25.00
2019-04-30T09:29:44.519Z,24.10
2019-04-30T09:30:41.850Z,23.20
2019-04-30T09:31:41.868Z,22.30
2019-04-30T09:32:41.883Z,23.90
2019-04-30T09:33:41.901Z,23.40
2019-04-30T09:34:41.916Z,23.30
2019-04-30T09:35:41.927Z,23.90
2019-04-30T09:36:41.944Z,24.60
2019-04-30T09:37:41.997Z,24.50
2019-04-30T09:38:41.979Z,24.00
2019-04-30T09:39:41.989Z,22.80
2019-04-30T09:40:42.004Z,22.90
2019-04-30T09:41:42.013Z,23.30
2019-04-30T09:42:42.029Z,23.70
2019-04-30T09:43:42.045Z,23.60
2019-04-30T09:44:42.061Z,23.60
2019-04-30T09:45:42.079Z,22.40
2019-04-30T09:46:42.094Z,22.40
2019-04-30T09:47:42.197Z,22.00
2019-04-30T09:48:42.132Z,23.60
2019-04-30T09:49:42.138Z,22.70
2019-04-30T09:50:42.336Z,22.80
2019-04-30T09:51:42.447Z,22.30
2019-04-30T09:52:42.622Z,22.40
2019-04-30T09:53:42.201Z,21.60
2019-04-30T09:54:42.235Z,23.20
2019-04-30T09:55:42.229Z,23.70
2019-04-30T09:56:42.245Z,23.20
2019-04-30T09:57:42.265Z,22.30
2019-04-30T09:58:42.283Z,22.30
2019-04-30T09:59:42.298Z,22.70
2019-04-30T10:00:42.314Z,23.70
2019-04-30T10:01:42.329Z,23.90
2019-04-30T10:02:42.340Z,22.90
2019-04-30T10:03:42.889Z,22.00
2019-04-30T10:04:42.820Z,23.70
2019-04-30T10:05:42.388Z,24.20
2019-04-30T10:06:42.401Z,22.50
2019-04-30T10:07:42.412Z,23.30
2019-04-30T10:08:48.407Z,22.60
2019-04-30T10:09:42.444Z,22.40
2019-04-30T10:10:42.459Z,23.40
2019-04-30T10:11:42.470Z,22.80
2019-04-30T10:12:42.488Z,23.20
2019-04-30T10:13:42.492Z,22.60
2019-04-30T10:14:42.507Z,24.00
2019-04-30T10:15:42.525Z,23.80
2019-04-30T10:16:42.537Z,23.90
2019-04-30T10:17:42.555Z,23.80
2019-04-30T10:18:42.569Z,23.10
2019-04-30T10:19:42.581Z,23.00
2019-04-30T10:20:42.595Z,23.30
2019-04-30T10:21:42.606Z,24.10
2019-04-30T10:22:42.619Z,22.20
2019-04-30T10:23:42.639Z,24.10
2019-04-30T10:24:42.652Z,22.70
2019-04-30T10:25:42.665Z,22.30
2019-04-30T10:26:42.675Z,21.30
2019-04-30T10:27:42.716Z,21.20
2019-04-30T10:28:42.708Z,20.40
2019-04-30T10:29:42.723Z,20.80
2019-04-30T10:30:42.739Z,19.90
2019-04-30T10:31:42.753Z,20.50
2019-04-30T10:32:42.769Z,21.80
2019-04-30T10:33:42.777Z,20.30
2019-04-30T10:34:42.795Z,19.80
2019-04-30T10:35:42.804Z,20.20
2019-04-30T10:36:42.821Z,21.30
2019-04-30T10:37:42.841Z,20.70
2019-04-30T10:38:42.853Z,19.60
2019-04-30T10:39:42.906Z,19.10
2019-04-30T10:40:42.881Z,18.80
2019-04-30T10:41:42.898Z,18.70
2019-04-30T10:42:42.912Z,21.50
2019-04-30T10:43:42.928Z,19.80
2019-04-30T10:44:42.943Z,19.80
2019-04-30T10:45:42.954Z,21.30
2019-04-30T10:46:42.968Z,21.10
2019-04-30T10:47:42.985Z,21.30
2019-04-30T10:48:43.453Z,21.50
2019-04-30T10:49:43.021Z,24.80
2019-04-30T10:50:43.029Z,23.80
2019-04-30T10:51:43.041Z,24.30
2019-04-30T10:52:43.054Z,22.70
2019-04-30T10:53:43.065Z,23.90
2019-04-30T10:54:43.076Z,22.40
2019-04-30T10:55:43.097Z,21.70
2019-04-30T10:56:43.110Z,21.20
2019-04-30T10:57:43.117Z,21.50
2019-04-30T10:58:43.154Z,21.50
2019-04-30T10:59:43.149Z,21.90
2019-04-30T11:00:43.162Z,21.30
2019-04-30T11:01:43.179Z,19.20
2019-04-30T11:02:43.193Z,20.60
2019-04-30T11:03:43.209Z,20.70
2019-04-30T11:04:43.221Z,20.20
2019-04-30T11:05:43.229Z,20.60
2019-04-30T11:06:43.243Z,20.50
2019-04-30T11:07:43.254Z,20.50
2019-04-30T11:08:43.268Z,19.10
2019-04-30T11:09:43.323Z,19.90
2019-04-30T11:10:43.299Z,21.40
2019-04-30T11:11:43.308Z,21.80
2019-04-30T11:12:43.319Z,22.20
2019-04-30T11:13:43.353Z,23.40
2019-04-30T11:14:43.349Z,24.20
2019-04-30T11:15:43.381Z,21.90
2019-04-30T11:16:43.543Z,21.90
2019-04-30T11:17:43.597Z,22.90
2019-04-30T11:18:43.608Z,23.50
2019-04-30T11:19:43.600Z,23.30
2019-04-30T11:20:43.671Z,23.30
2019-04-30T11:21:43.576Z,22.30
2019-04-30T11:22:43.621Z,21.40
2019-04-30T11:23:43.719Z,22.90
2019-04-30T11:24:56.505Z,21.10
2019-04-30T11:25:44.038Z,21.70
2019-04-30T11:26:44.494Z,23.00
2019-04-30T11:27:44.063Z,21.60
2019-04-30T11:28:43.749Z,21.40
2019-04-30T11:29:43.768Z,21.30
2019-04-30T11:30:43.749Z,24.10
2019-04-30T11:31:43.709Z,21.60
2019-04-30T11:32:43.717Z,21.40
2019-04-30T11:33:43.778Z,20.30
2019-04-30T11:34:43.566Z,20.30
2019-04-30T11:35:43.575Z,18.60
2019-04-30T11:36:43.580Z,19.00
2019-04-30T11:37:43.582Z,18.00
2019-04-30T11:38:43.588Z,20.90
2019-04-30T11:39:43.599Z,17.80
2019-04-30T11:40:43.605Z,18.70
2019-04-30T11:41:43.615Z,19.90
2019-04-30T11:42:43.622Z,21.10
2019-04-30T11:43:43.623Z,20.20
2019-04-30T11:44:43.630Z,20.10
2019-04-30T11:45:43.638Z,19.70
2019-04-30T11:46:43.645Z,19.60
2019-04-30T11:47:52.995Z,20.40
2019-04-30T11:48:43.652Z,23.30
2019-04-30T11:49:43.653Z,22.10
2019-04-30T11:50:43.659Z,23.10
2019-04-30T11:51:43.662Z,26.20
2019-04-30T11:52:43.666Z,24.70
2019-04-30T11:53:43.674Z,23.90
2019-04-30T11:54:51.301Z,24.40
2019-04-30T11:55:43.686Z,23.30
2019-04-30T11:56:43.691Z,25.50
2019-04-30T11:57:43.691Z,21.90
2019-04-30T11:58:43.695Z,22.30
2019-04-30T11:59:43.701Z,21.70
2019-04-30T12:00:43.703Z,22.00
2019-04-30T12:01:43.703Z,22.90
2019-04-30T12:02:43.707Z,22.10
2019-04-30T12:03:43.707Z,22.50
2019-04-30T12:04:43.709Z,25.90
2019-04-30T12:05:43.720Z,22.50
2019-04-30T12:06:43.720Z,24.80
2019-04-30T12:07:43.725Z,23.50
2019-04-30T12:08:43.727Z,23.90
2019-04-30T12:09:43.726Z,23.50
2019-04-30T12:10:43.727Z,21.40
2019-04-30T12:11:43.732Z,26.10
2019-04-30T12:12:43.736Z,22.10
2019-04-30T12:13:43.741Z,21.60
2019-04-30T12:14:43.745Z,22.80
2019-04-30T12:15:43.743Z,25.70
2019-04-30T12:16:43.745Z,21.80
2019-04-30T12:17:43.750Z,23.60
2019-04-30T12:18:43.754Z,20.30
2019-04-30T12:19:43.754Z,19.60
2019-04-30T12:20:43.755Z,20.10
2019-04-30T12:21:43.754Z,20.00
2019-04-30T12:22:43.756Z,22.00
2019-04-30T12:23:43.761Z,23.90
2019-04-30T12:24:43.764Z,21.90
2019-04-30T12:25:43.772Z,21.50
2019-04-30T12:26:43.771Z,21.50
2019-04-30T12:27:43.773Z,23.70
2019-04-30T12:28:43.775Z,26.00
2019-04-30T12:29:43.771Z,22.90
2019-04-30T12:30:43.774Z,22.20
2019-04-30T12:31:43.781Z,24.20
2019-04-30T12:32:43.784Z,25.20
2019-04-30T12:33:43.785Z,23.60
2019-04-30T12:34:43.787Z,24.10
2019-04-30T12:35:43.789Z,26.80
2019-04-30T12:36:43.792Z,27.10
2019-04-30T12:37:43.795Z,22.20
2019-04-30T12:38:43.798Z,25.40
2019-04-30T12:39:43.799Z,23.70
2019-04-30T12:40:43.808Z,20.90
2019-04-30T12:41:43.800Z,22.20
2019-04-30T12:42:43.803Z,23.60
2019-04-30T12:43:43.802Z,27.80
2019-04-30T12:44:43.804Z,24.80
2019-04-30T12:45:43.810Z,20.70
2019-04-30T12:46:43.812Z,23.40
2019-04-30T12:47:43.812Z,20.60
2019-04-30T12:48:43.815Z,20.30
2019-04-30T12:49:43.819Z,21.30
2019-04-30T12:50:43.822Z,25.10
2019-04-30T12:51:45.935Z,21.70
2019-04-30T12:52:43.828Z,21.90